Time;durP1;ratioP1;P1;durP2;ratioP2;P2;SDS_P1;SDS_P2;PMS_P1;PMS_P2;Temp;Humidity;BMP_temperature;BMP_pressure;BME280_temperature;BME280_humidity;BME280_pressure;Samples;Min_cycle;Max_cycle;Signal;HPM_P1;HPM_P2
2021/01/31 00:02:15;;;;;;;7.90;1.50;;;;;;;;;;4953032;28;20158;-89
2021/01/31 00:04:41;;;;;;;;;;;;;;;;;;4971149;28;20065;-88
2021/01/31 00:07:07;;;;;;;8.13;2.30;;;;;;;;;;4984318;28;19922;-88
2021/01/31 00:09:33;;;;;;;13.57;4.43;;;;;;;;;;4953005;28;20030;-91
2021/01/31 00:12:03;;;;;;;9.63;3.08;;;;;;;;;;4953861;28;20165;-91
2021/01/31 00:14:29;;;;;;;8.55;1.50;;;;;;;;;;4965528;28;20018;-90
2021/01/31 00:16:55;;;;;;;;;;;;;;;;;;4953701;28;20038;-90
2021/01/31 00:19:23;;;;;;;4.95;1.05;;;;;;;;;;4983723;28;19921;-91
2021/01/31 00:21:50;;;;;;;7.35;1.70;;;;;;;;;;4973114;28;20034;-91
2021/01/31 00:24:17;;;;;;;7.00;1.42;;;;;;;;;;4967624;28;20516;-89
2021/01/31 00:26:43;;;;;;;10.60;2.33;;;;;;;;;;4955583;28;20121;-90
2021/01/31 00:29:09;;;;;;;10.73;2.47;;;;;;;;;;4955103;28;20030;-90
2021/01/31 00:31:35;;;;;;;6.80;2.05;;;;;;;;;;4968202;28;20128;-89
2021/01/31 00:34:01;;;;;;;5.88;1.42;;;;;;;;;;4965523;28;20042;-91
2021/01/31 00:36:27;;;;;;;;;;;;;;;;;;4954063;28;20041;-91
2021/01/31 00:38:53;;;;;;;6.55;1.60;;;;;;;;;;4960190;28;20097;-91
2021/01/31 00:41:20;;;;;;;7.63;1.75;;;;;;;;;;4945114;28;20018;-89
2021/01/31 00:43:46;;;;;;;8.90;1.77;;;;;;;;;;4975002;28;20092;-91
2021/01/31 00:46:12;;;;;;;7.50;1.33;;;;;;;;;;4972055;28;20065;-91
2021/01/31 00:48:38;;;;;;;;;;;;;;;;;;4972769;28;20157;-90
2021/01/31 00:51:04;;;;;;;7.40;1.30;;;;;;;;;;4973530;28;20020;-91
2021/01/31 00:53:30;;;;;;;10.00;3.15;;;;;;;;;;4973070;28;20026;-90
2021/01/31 00:55:57;;;;;;;7.15;1.35;;;;;;;;;;4973277;28;20042;-91
2021/01/31 00:58:23;;;;;;;7.30;2.33;;;;;;;;;;4972087;28;20046;-91
2021/01/31 01:00:49;;;;;;;9.77;1.75;;;;;;;;;;4957048;28;20066;-90
2021/01/31 01:03:15;;;;;;;8.20;1.52;;;;;;;;;;4957365;28;20073;-91
2021/01/31 01:05:41;;;;;;;7.70;2.15;;;;;;;;;;4971914;28;20050;-89
2021/01/31 01:08:07;;;;;;;;;;;;;;;;;;4992413;28;20114;-91
2021/01/31 01:10:35;;;;;;;6.90;1.40;;;;;;;;;;4971332;28;20040;-88
2021/01/31 01:13:02;;;;;;;8.07;1.33;;;;;;;;;;4973036;28;20084;-89
2021/01/31 01:15:28;;;;;;;7.60;1.58;;;;;;;;;;4968608;28;20048;-89
2021/01/31 01:17:55;;;;;;;9.45;1.85;;;;;;;;;;4968004;28;20046;-89
2021/01/31 01:20:21;;;;;;;7.78;1.60;;;;;;;;;;4953984;28;20031;-90
2021/01/31 01:22:48;;;;;;;6.60;1.50;;;;;;;;;;4959643;28;20040;-89
2021/01/31 01:25:14;;;;;;;;;;;;;;;;;;4953187;28;20054;-89
2021/01/31 01:27:40;;;;;;;5.93;1.02;;;;;;;;;;4973052;28;20003;-90
2021/01/31 01:30:08;;;;;;;7.82;1.73;;;;;;;;;;4972815;28;20026;-90
2021/01/31 01:32:34;;;;;;;7.55;1.52;;;;;;;;;;4972604;28;20026;-89
2021/01/31 01:35:00;;;;;;;6.57;1.30;;;;;;;;;;4978917;28;20018;-89
2021/01/31 01:37:26;;;;;;;8.05;1.30;;;;;;;;;;4970903;28;20050;-89
2021/01/31 01:39:52;;;;;;;6.30;1.50;;;;;;;;;;4972202;28;20602;-90
2021/01/31 01:42:19;;;;;;;6.38;1.45;;;;;;;;;;4969208;28;20648;-89
2021/01/31 01:44:45;;;;;;;9.00;1.80;;;;;;;;;;4973856;28;20165;-91
2021/01/31 01:47:15;;;;;;;7.70;1.67;;;;;;;;;;4990314;28;20014;-90
2021/01/31 01:49:42;;;;;;;6.22;1.15;;;;;;;;;;4974578;28;20023;-90
2021/01/31 01:52:23;;;;;;;7.25;1.63;;;;;;;;;;4954510;28;20053;-90
2021/01/31 01:55:09;;;;;;;7.57;1.48;;;;;;;;;;4971324;28;20030;-90
2021/01/31 01:57:47;;;;;;;10.10;1.67;;;;;;;;;;4952839;28;20045;-90
2021/01/31 02:00:14;;;;;;;9.98;2.50;;;;;;;;;;4985495;28;20368;-90
2021/01/31 02:02:44;;;;;;;10.55;1.88;;;;;;;;;;4956817;28;20569;-91
2021/01/31 02:05:12;;;;;;;9.60;1.75;;;;;;;;;;4957397;28;20125;-89
2021/01/31 02:07:39;;;;;;;12.50;2.65;;;;;;;;;;4973535;28;20046;-90
2021/01/31 02:10:06;;;;;;;12.07;1.70;;;;;;;;;;4971700;28;20125;-91
2021/01/31 02:12:33;;;;;;;8.52;1.40;;;;;;;;;;4953832;28;20038;-91
2021/01/31 02:15:00;;;;;;;;;;;;;;;;;;4974530;28;20042;-90
2021/01/31 02:17:44;;;;;;;10.23;1.83;;;;;;;;;;4967313;28;19922;-90
2021/01/31 02:20:23;;;;;;;13.25;2.08;;;;;;;;;;4974250;28;20026;-90
2021/01/31 02:22:58;;;;;;;10.85;2.33;;;;;;;;;;4957220;28;20034;-90
2021/01/31 02:26:03;;;;;;;11.93;2.53;;;;;;;;;;4972533;28;20768;-91
2021/01/31 02:28:47;;;;;;;9.75;2.03;;;;;;;;;;4899243;28;20070;-91
2021/01/31 02:31:32;;;;;;;8.23;1.73;;;;;;;;;;4913397;29;20045;-90
2021/01/31 02:34:00;;;;;;;10.32;1.80;;;;;;;;;;4918550;28;20035;-90
2021/01/31 02:36:30;;;;;;;8.45;1.50;;;;;;;;;;4898857;29;20189;-90
2021/01/31 02:39:05;;;;;;;10.63;1.60;;;;;;;;;;4913233;29;20216;-90
2021/01/31 02:41:35;;;;;;;12.07;2.97;;;;;;;;;;4914046;28;20043;-90
2021/01/31 02:44:04;;;;;;;8.43;2.50;;;;;;;;;;4918577;29;20039;-90
2021/01/31 02:46:30;;;;;;;10.75;2.10;;;;;;;;;;4913094;28;20082;-90
2021/01/31 02:49:09;;;;;;;7.75;1.70;;;;;;;;;;4917783;29;20062;-91
2021/01/31 02:51:43;;;;;;;6.95;1.30;;;;;;;;;;4896872;29;20849;-89
2021/01/31 02:54:16;;;;;;;8.80;1.75;;;;;;;;;;4918305;28;20039;-90
2021/01/31 02:56:52;;;;;;;6.97;1.55;;;;;;;;;;4916344;29;20046;-89
2021/01/31 02:59:25;;;;;;;10.10;1.60;;;;;;;;;;4943574;28;20396;-89
2021/01/31 03:02:02;;;;;;;7.60;1.58;;;;;;;;;;4955903;28;20437;-90
2021/01/31 03:04:28;;;;;;;5.88;1.42;;;;;;;;;;4970519;28;20121;-90
2021/01/31 03:07:01;;;;;;;7.22;1.50;;;;;;;;;;4974796;28;20049;-91
2021/01/31 03:09:33;;;;;;;7.85;1.40;;;;;;;;;;4967285;28;20422;-90
2021/01/31 03:12:02;;;;;;;8.23;1.55;;;;;;;;;;4974130;28;20038;-90
2021/01/31 03:14:41;;;;;;;9.68;1.83;;;;;;;;;;4971945;28;20160;-90
2021/01/31 03:17:17;;;;;;;9.57;1.40;;;;;;;;;;4974661;28;20105;-90
2021/01/31 03:19:49;;;;;;;10.80;2.25;;;;;;;;;;4972871;28;20442;-90
2021/01/31 03:22:18;;;;;;;10.07;1.65;;;;;;;;;;4954443;28;20090;-90
2021/01/31 03:24:52;;;;;;;12.57;2.85;;;;;;;;;;4971187;28;20670;-90
2021/01/31 03:27:25;;;;;;;11.00;2.38;;;;;;;;;;4967472;28;20066;-89
2021/01/31 03:29:51;;;;;;;11.18;2.17;;;;;;;;;;4959723;28;20046;-90
2021/01/31 03:32:26;;;;;;;10.18;1.77;;;;;;;;;;4974575;28;20030;-90
2021/01/31 03:35:09;;;;;;;11.35;2.25;;;;;;;;;;4967824;28;20042;-89
2021/01/31 03:37:41;;;;;;;12.25;2.00;;;;;;;;;;4986330;28;20030;-89
2021/01/31 03:40:09;;;;;;;14.20;3.15;;;;;;;;;;4991500;28;20372;-88
2021/01/31 03:42:36;;;;;;;14.02;2.65;;;;;;;;;;4970393;28;20034;-90
2021/01/31 03:45:06;;;;;;;14.75;2.50;;;;;;;;;;4957157;28;20093;-89
2021/01/31 03:47:36;;;;;;;14.25;2.90;;;;;;;;;;4971757;28;21611;-90
2021/01/31 03:50:02;;;;;;;13.93;2.67;;;;;;;;;;4956638;28;22127;-90
2021/01/31 03:52:29;;;;;;;15.60;3.15;;;;;;;;;;4952364;28;20023;-91
2021/01/31 03:54:55;;;;;;;12.25;2.28;;;;;;;;;;4957114;28;20141;-90
2021/01/31 03:57:21;;;;;;;;;;;;;;;;;;4967608;28;20088;-90
2021/01/31 03:59:55;;;;;;;15.75;2.58;;;;;;;;;;4948947;28;19925;-90
2021/01/31 04:02:24;;;;;;;11.65;2.40;;;;;;;;;;4985892;28;20037;-91
2021/01/31 04:04:51;;;;;;;11.63;2.05;;;;;;;;;;4956381;28;20106;-90
2021/01/31 04:07:22;;;;;;;12.15;2.55;;;;;;;;;;4969465;28;20038;-90
2021/01/31 04:09:48;;;;;;;14.25;2.10;;;;;;;;;;4979739;28;20592;-90
2021/01/31 04:12:16;;;;;;;13.85;2.45;;;;;;;;;;4975399;28;20090;-89
2021/01/31 04:14:51;;;;;;;15.05;2.47;;;;;;;;;;4987711;28;20050;-90
2021/01/31 04:17:17;;;;;;;14.73;2.22;;;;;;;;;;4960539;28;20026;-90
2021/01/31 04:19:44;;;;;;;15.90;2.60;;;;;;;;;;4958627;28;20038;-90
2021/01/31 04:22:09;;;;;;;;;;;;;;;;;;4977983;28;20442;-90
2021/01/31 04:24:36;;;;;;;12.27;2.03;;;;;;;;;;4952232;28;19932;-90
2021/01/31 04:27:02;;;;;;;13.20;1.90;;;;;;;;;;4958298;28;20916;-89
2021/01/31 04:29:28;;;;;;;11.18;1.98;;;;;;;;;;4966284;28;20037;-90
2021/01/31 04:31:54;;;;;;;11.55;1.92;;;;;;;;;;4976658;28;20031;-90
2021/01/31 04:34:21;;;;;;;7.60;1.50;;;;;;;;;;4953634;28;20031;-91
2021/01/31 04:36:47;;;;;;;9.75;1.90;;;;;;;;;;4953892;28;20077;-89
2021/01/31 04:39:13;;;;;;;9.85;1.75;;;;;;;;;;4956568;28;20116;-91
2021/01/31 04:41:39;;;;;;;;;;;;;;;;;;4972529;28;20050;-89
2021/01/31 04:44:07;;;;;;;8.25;1.40;;;;;;;;;;4985590;28;19937;-90
2021/01/31 04:46:38;;;;;;;5.63;1.10;;;;;;;;;;4938231;28;20164;-90
2021/01/31 04:49:29;;;;;;;4.85;0.90;;;;;;;;;;4956662;28;20031;-91
2021/01/31 04:51:55;;;;;;;6.30;1.30;;;;;;;;;;4939837;28;20038;-90
2021/01/31 04:54:25;;;;;;;4.82;0.93;;;;;;;;;;4955899;28;20093;-90
2021/01/31 04:56:51;;;;;;;5.72;0.85;;;;;;;;;;4969484;28;20042;-90
2021/01/31 04:59:29;;;;;;;6.53;1.00;;;;;;;;;;4959854;28;20053;-90
2021/01/31 05:01:59;;;;;;;7.97;1.10;;;;;;;;;;4958846;28;20049;-90
2021/01/31 05:04:27;;;;;;;7.28;1.00;;;;;;;;;;4942358;28;20065;-90
2021/01/31 05:06:56;;;;;;;6.25;1.10;;;;;;;;;;4974122;28;20039;-90
2021/01/31 05:09:24;;;;;;;5.75;1.02;;;;;;;;;;4960837;28;20042;-89
2021/01/31 05:11:50;;;;;;;5.80;1.05;;;;;;;;;;4960890;28;20034;-90
2021/01/31 05:14:33;;;;;;;7.60;1.17;;;;;;;;;;4975398;28;20041;-90
2021/01/31 05:16:59;;;;;;;6.72;1.08;;;;;;;;;;4980038;28;20046;-90
2021/01/31 05:19:29;;;;;;;4.82;0.80;;;;;;;;;;4953998;28;20495;-90
2021/01/31 05:21:56;;;;;;;6.35;1.05;;;;;;;;;;4957966;28;20044;-89
2021/01/31 05:24:22;;;;;;;;;;;;;;;;;;4973017;28;20043;-90
2021/01/31 05:26:56;;;;;;;3.70;0.75;;;;;;;;;;4969966;28;19918;-90
2021/01/31 05:29:24;;;;;;;5.55;0.90;;;;;;;;;;4940421;28;20026;-90
2021/01/31 05:31:57;;;;;;;5.13;1.00;;;;;;;;;;4972972;28;20026;-90
2021/01/31 05:34:38;;;;;;;4.95;0.80;;;;;;;;;;4968731;28;20029;-90
2021/01/31 05:37:09;;;;;;;5.07;1.10;;;;;;;;;;4960141;28;20057;-90
2021/01/31 05:39:40;;;;;;;5.70;0.90;;;;;;;;;;4955600;28;20042;-91
2021/01/31 05:42:14;;;;;;;7.05;1.08;;;;;;;;;;4970893;28;21078;-89
2021/01/31 05:44:40;;;;;;;4.75;0.98;;;;;;;;;;4959430;28;20050;-89
2021/01/31 05:47:17;;;;;;;6.85;0.90;;;;;;;;;;4977776;28;20030;-89
2021/01/31 05:49:45;;;;;;;6.00;0.82;;;;;;;;;;4973967;28;20084;-90
2021/01/31 05:52:31;;;;;;;4.80;0.90;;;;;;;;;;4970787;28;20053;-89
2021/01/31 05:55:00;;;;;;;8.50;1.10;;;;;;;;;;4973872;28;20076;-90
2021/01/31 05:57:37;;;;;;;3.72;0.85;;;;;;;;;;4969232;28;20038;-88
2021/01/31 06:00:23;;;;;;;4.25;0.85;;;;;;;;;;4955525;28;20038;-89
2021/01/31 06:03:06;;;;;;;4.53;0.73;;;;;;;;;;4947406;28;20787;-90
2021/01/31 06:05:32;;;;;;;5.43;0.90;;;;;;;;;;4972195;28;20128;-89
2021/01/31 06:08:28;;;;;;;4.85;0.90;;;;;;;;;;4978240;28;20045;-89
2021/01/31 06:11:01;;;;;;;3.45;0.70;;;;;;;;;;4863762;29;20058;-90
2021/01/31 06:13:28;;;;;;;5.03;0.90;;;;;;;;;;4875665;29;20048;-90
2021/01/31 06:15:56;;;;;;;5.43;1.00;;;;;;;;;;4878885;29;20151;-90
2021/01/31 06:18:28;;;;;;;6.30;1.08;;;;;;;;;;4876640;29;20064;-90
2021/01/31 06:20:54;;;;;;;5.38;1.08;;;;;;;;;;4880600;29;20045;-91
2021/01/31 06:23:20;;;;;;;;;;;;;;;;;;4875735;29;20028;-90
2021/01/31 06:25:46;;;;;;;5.40;1.02;;;;;;;;;;4883517;29;20096;-91
2021/01/31 06:28:17;;;;;;;5.38;0.88;;;;;;;;;;4882530;29;20793;-90
2021/01/31 06:30:53;;;;;;;5.28;0.93;;;;;;;;;;4880223;29;20079;-88
2021/01/31 06:33:19;;;;;;;6.82;0.93;;;;;;;;;;4873886;29;20036;-90
2021/01/31 06:35:46;;;;;;;5.22;0.80;;;;;;;;;;4875812;29;20549;-89
2021/01/31 06:38:12;;;;;;;;;;;;;;;;;;4875932;29;20048;-90
2021/01/31 06:40:56;;;;;;;4.75;0.82;;;;;;;;;;4874482;29;20412;-90
2021/01/31 06:43:41;;;;;;;6.53;1.05;;;;;;;;;;4876616;29;20056;-90
2021/01/31 06:46:11;;;;;;;5.18;0.90;;;;;;;;;;4880694;29;20033;-90
2021/01/31 06:48:57;;;;;;;5.60;1.13;;;;;;;;;;4971661;28;20038;-90
2021/01/31 06:51:26;;;;;;;3.70;0.75;;;;;;;;;;4956097;28;20065;-90
2021/01/31 06:54:18;;;;;;;6.93;1.10;;;;;;;;;;4988335;28;20141;-90
2021/01/31 06:56:56;;;;;;;7.18;1.00;;;;;;;;;;4961577;28;20100;-89
2021/01/31 06:59:23;;;;;;;5.65;1.00;;;;;;;;;;4973195;28;20113;-90
2021/01/31 07:02:04;;;;;;;5.40;0.90;;;;;;;;;;4982064;28;20886;-91
2021/01/31 07:04:36;;;;;;;5.30;0.93;;;;;;;;;;4975962;28;20244;-90
2021/01/31 07:07:29;;;;;;;5.70;0.98;;;;;;;;;;4991249;28;20034;-89
2021/01/31 07:09:55;;;;;;;6.93;1.02;;;;;;;;;;4967350;28;20118;-92
2021/01/31 07:12:25;;;;;;;4.78;0.77;;;;;;;;;;4958893;28;20050;-89
2021/01/31 07:15:03;;;;;;;8.00;1.02;;;;;;;;;;4972171;28;20121;-89
2021/01/31 07:17:40;;;;;;;5.97;1.10;;;;;;;;;;4974392;28;20804;-89
2021/01/31 07:20:06;;;;;;;5.93;1.00;;;;;;;;;;4964757;28;20030;-89
2021/01/31 07:22:36;;;;;;;3.90;0.80;;;;;;;;;;4974639;28;20050;-90
2021/01/31 07:25:09;;;;;;;8.35;1.25;;;;;;;;;;4974364;28;20042;-90
2021/01/31 07:27:55;;;;;;;5.20;0.90;;;;;;;;;;4972259;28;20031;-89
2021/01/31 07:30:21;;;;;;;5.63;1.00;;;;;;;;;;4971019;28;20038;-90
2021/01/31 07:32:53;;;;;;;4.63;0.80;;;;;;;;;;4955041;28;20034;-89
2021/01/31 07:35:22;;;;;;;7.68;1.02;;;;;;;;;;4956540;28;20018;-89
2021/01/31 07:37:50;;;;;;;5.07;0.75;;;;;;;;;;4991068;28;20057;-90
2021/01/31 07:40:19;;;;;;;6.43;1.30;;;;;;;;;;4950296;28;20034;-91
2021/01/31 07:42:46;;;;;;;8.73;1.20;;;;;;;;;;4974995;28;20046;-90
2021/01/31 07:45:13;;;;;;;5.45;1.00;;;;;;;;;;4956793;28;20053;-92
2021/01/31 07:47:40;;;;;;;6.00;1.00;;;;;;;;;;4970214;28;20061;-92
2021/01/31 07:50:06;;;;;;;7.07;1.00;;;;;;;;;;4974564;28;20194;-90
2021/01/31 07:52:52;;;;;;;6.47;1.08;;;;;;;;;;4953336;28;20037;-88
2021/01/31 07:55:28;;;;;;;5.68;1.10;;;;;;;;;;4956113;28;20806;-93
2021/01/31 07:58:13;;;;;;;6.38;1.10;;;;;;;;;;4951236;28;20042;-90
2021/01/31 08:00:44;;;;;;;9.88;1.38;;;;;;;;;;4961622;28;20038;-90
2021/01/31 08:03:29;;;;;;;6.90;1.38;;;;;;;;;;4971635;28;20034;-92
2021/01/31 08:05:57;;;;;;;7.57;1.15;;;;;;;;;;4957173;28;20069;-87
2021/01/31 08:08:37;;;;;;;7.53;1.10;;;;;;;;;;4963514;28;20051;-89
2021/01/31 08:11:04;;;;;;;7.28;1.02;;;;;;;;;;4967898;28;20023;-90
2021/01/31 08:13:36;;;;;;;7.97;1.30;;;;;;;;;;4965109;28;20038;-91
2021/01/31 08:16:22;;;;;;;5.72;1.00;;;;;;;;;;4972354;28;20034;-91
2021/01/31 08:19:24;;;;;;;7.53;1.45;;;;;;;;;;4987703;28;20792;-90
2021/01/31 08:21:58;;;;;;;5.75;1.00;;;;;;;;;;4959952;28;20065;-90
2021/01/31 08:24:42;;;;;;;5.90;1.23;;;;;;;;;;4937090;28;20031;-91
2021/01/31 08:27:11;;;;;;;4.38;0.98;;;;;;;;;;4951132;28;20039;-91
2021/01/31 08:29:38;;;;;;;7.38;1.17;;;;;;;;;;4951683;28;20046;-90
2021/01/31 08:32:04;;;;;;;;;;;;;;;;;;4942028;28;20182;-90
2021/01/31 08:34:31;;;;;;;5.63;1.00;;;;;;;;;;4932361;28;19944;-90
2021/01/31 08:37:17;;;;;;;7.20;1.42;;;;;;;;;;4950795;28;20054;-89
2021/01/31 08:39:43;;;;;;;7.57;1.30;;;;;;;;;;4952111;28;20046;-89
2021/01/31 08:42:13;;;;;;;6.82;1.27;;;;;;;;;;4958253;28;20046;-89
2021/01/31 08:44:41;;;;;;;6.93;1.30;;;;;;;;;;4913383;28;1000976;-90
2021/01/31 08:47:08;;;;;;;7.50;1.15;;;;;;;;;;4963612;28;20034;-90
2021/01/31 08:49:34;;;;;;;5.40;0.90;;;;;;;;;;4939824;28;20043;-91
2021/01/31 08:52:02;;;;;;;8.43;1.20;;;;;;;;;;4938376;28;20118;-91
2021/01/31 08:54:29;;;;;;;7.75;1.20;;;;;;;;;;4937925;28;20506;-89
2021/01/31 08:56:55;;;;;;;6.00;1.13;;;;;;;;;;4942889;28;20038;-90
2021/01/31 08:59:36;;;;;;;6.57;1.20;;;;;;;;;;4954870;28;20355;-89
2021/01/31 09:02:16;;;;;;;4.93;0.80;;;;;;;;;;4956177;28;20059;-89
2021/01/31 09:04:51;;;;;;;6.07;1.30;;;;;;;;;;4957644;28;20137;-90
2021/01/31 09:07:30;;;;;;;6.80;1.05;;;;;;;;;;4954755;28;20042;-90
2021/01/31 09:09:58;;;;;;;6.03;0.88;;;;;;;;;;4974480;28;20054;-87
2021/01/31 09:12:25;;;;;;;4.90;0.90;;;;;;;;;;4970695;28;20023;-92
2021/01/31 09:14:53;;;;;;;6.10;1.38;;;;;;;;;;4964364;28;20085;-92
2021/01/31 09:17:24;;;;;;;7.15;1.40;;;;;;;;;;4943630;28;20034;-89
2021/01/31 09:19:50;;;;;;;6.93;1.40;;;;;;;;;;4947449;28;20057;-90
2021/01/31 09:22:19;;;;;;;9.13;1.40;;;;;;;;;;4956763;28;20526;-89
2021/01/31 09:24:50;;;;;;;4.60;0.90;;;;;;;;;;4954486;28;20038;-89
2021/01/31 09:27:18;;;;;;;8.02;1.10;;;;;;;;;;4956666;28;20034;-90
2021/01/31 09:29:46;;;;;;;5.93;1.20;;;;;;;;;;4941501;28;20039;-90
2021/01/31 09:32:24;;;;;;;7.53;1.08;;;;;;;;;;4959092;28;20030;-89
2021/01/31 09:34:52;;;;;;;6.32;1.30;;;;;;;;;;4939379;28;20114;-89
2021/01/31 09:37:23;;;;;;;5.85;1.42;;;;;;;;;;4937014;28;20039;-88
2021/01/31 09:39:51;;;;;;;9.00;1.33;;;;;;;;;;4940735;28;20035;-88
2021/01/31 09:42:17;;;;;;;5.35;1.10;;;;;;;;;;4948175;28;20046;-89
2021/01/31 09:44:55;;;;;;;6.45;1.38;;;;;;;;;;4964130;28;20050;-88
2021/01/31 09:47:21;;;;;;;8.25;1.20;;;;;;;;;;4971032;28;20038;-90
2021/01/31 09:49:56;;;;;;;5.93;1.20;;;;;;;;;;4962621;28;20095;-91
2021/01/31 09:52:22;;;;;;;7.13;1.13;;;;;;;;;;4976054;28;20050;-90
2021/01/31 09:54:48;;;;;;;8.15;2.15;;;;;;;;;;4970466;28;20073;-92
2021/01/31 09:57:19;;;;;;;8.73;1.25;;;;;;;;;;4972636;28;20038;-89
2021/01/31 09:59:46;;;;;;;8.70;1.60;;;;;;;;;;4956017;28;20379;-89
2021/01/31 10:02:16;;;;;;;9.75;2.38;;;;;;;;;;4975452;28;20062;-91
2021/01/31 10:04:43;;;;;;;10.45;2.45;;;;;;;;;;4976708;28;20857;-93
2021/01/31 10:07:11;;;;;;;7.72;1.27;;;;;;;;;;4955041;28;20045;-90
2021/01/31 10:09:38;;;;;;;9.45;2.30;;;;;;;;;;4956507;28;20299;-90
2021/01/31 10:12:15;;;;;;;8.30;1.33;;;;;;;;;;4983119;28;20038;-92
2021/01/31 10:14:48;;;;;;;11.48;4.28;;;;;;;;;;4972324;28;20049;-92
2021/01/31 10:17:29;;;;;;;7.85;1.70;;;;;;;;;;4979320;28;20054;-91
2021/01/31 10:20:16;;;;;;;10.80;4.72;;;;;;;;;;4984023;28;20054;-91
2021/01/31 10:22:42;;;;;;;10.65;1.65;;;;;;;;;;4954547;28;20672;-90
2021/01/31 10:25:11;;;;;;;13.50;4.22;;;;;;;;;;4957015;28;20043;-90
2021/01/31 10:27:43;;;;;;;7.20;1.73;;;;;;;;;;4956578;28;20042;-93
2021/01/31 10:30:19;;;;;;;8.48;1.35;;;;;;;;;;4957766;28;20038;-90
2021/01/31 10:32:45;;;;;;;6.05;1.10;;;;;;;;;;4954689;28;20395;-90
2021/01/31 10:35:23;;;;;;;7.32;1.40;;;;;;;;;;4991252;28;20028;-91
2021/01/31 10:37:50;;;;;;;8.05;1.67;;;;;;;;;;4971455;28;20035;-89
2021/01/31 10:40:16;;;;;;;5.75;1.33;;;;;;;;;;4970909;28;20038;-92
2021/01/31 10:42:45;;;;;;;8.82;2.75;;;;;;;;;;4959638;28;20026;-90
2021/01/31 10:45:13;;;;;;;9.77;2.20;;;;;;;;;;4962113;28;20046;-83
2021/01/31 10:47:39;;;;;;;7.25;1.52;;;;;;;;;;4944812;28;20510;-83
2021/01/31 10:50:06;;;;;;;8.60;1.80;;;;;;;;;;4946590;28;20037;-83
2021/01/31 10:52:33;;;;;;;8.75;1.50;;;;;;;;;;4950601;28;21962;-83
2021/01/31 10:55:00;;;;;;;6.63;1.60;;;;;;;;;;4964384;28;20109;-83
2021/01/31 10:57:28;;;;;;;8.18;1.52;;;;;;;;;;4958613;28;20101;-85
2021/01/31 10:59:55;;;;;;;6.82;1.42;;;;;;;;;;4946475;28;20050;-85
2021/01/31 11:02:21;;;;;;;8.43;2.53;;;;;;;;;;4959511;28;20041;-84
2021/01/31 11:04:48;;;;;;;11.15;2.47;;;;;;;;;;4964006;28;20017;-85
2021/01/31 11:07:14;;;;;;;7.50;1.92;;;;;;;;;;4942330;28;20792;-86
2021/01/31 11:09:40;;;;;;;6.47;1.27;;;;;;;;;;4961720;28;20049;-85
2021/01/31 11:12:06;;;;;;;7.82;2.03;;;;;;;;;;4962573;28;20038;-84
2021/01/31 11:14:33;;;;;;;7.10;1.48;;;;;;;;;;4955960;28;23690;-85
2021/01/31 11:17:00;;;;;;;8.80;2.38;;;;;;;;;;4948525;28;20452;-86
2021/01/31 11:19:27;;;;;;;9.75;1.92;;;;;;;;;;4963397;28;20038;-85
2021/01/31 11:21:53;;;;;;;7.75;1.77;;;;;;;;;;4957862;28;20146;-85
2021/01/31 11:24:19;;;;;;;6.10;1.00;;;;;;;;;;4942544;28;20034;-85
2021/01/31 11:26:45;;;;;;;5.72;1.67;;;;;;;;;;4958560;28;20039;-84
2021/01/31 11:29:12;;;;;;;6.82;1.50;;;;;;;;;;4947800;28;20098;-85
2021/01/31 11:31:38;;;;;;;7.85;2.08;;;;;;;;;;4961055;28;20716;-85
2021/01/31 11:34:04;;;;;;;5.40;1.10;;;;;;;;;;4976443;28;20202;-86
2021/01/31 11:36:30;;;;;;;5.60;1.20;;;;;;;;;;4959018;28;20038;-85
2021/01/31 11:38:56;;;;;;;7.45;1.48;;;;;;;;;;4962716;28;20121;-85
2021/01/31 11:41:22;;;;;;;6.57;1.38;;;;;;;;;;4957686;28;20045;-85
2021/01/31 11:43:48;;;;;;;5.78;1.20;;;;;;;;;;4962783;28;20022;-86
2021/01/31 11:46:15;;;;;;;6.80;1.23;;;;;;;;;;4940038;28;20406;-86
2021/01/31 11:48:41;;;;;;;8.13;1.50;;;;;;;;;;4962023;28;20042;-86
2021/01/31 11:51:09;;;;;;;5.68;1.15;;;;;;;;;;4958089;28;20249;-85
2021/01/31 11:53:36;;;;;;;9.25;2.20;;;;;;;;;;4956684;28;20034;-82
2021/01/31 11:56:02;;;;;;;6.10;1.30;;;;;;;;;;4961405;28;20124;-85
2021/01/31 11:58:29;;;;;;;6.30;1.27;;;;;;;;;;4939149;28;20061;-83
2021/01/31 12:00:55;;;;;;;7.10;1.40;;;;;;;;;;4943211;28;20735;-85
2021/01/31 12:03:21;;;;;;;7.00;1.20;;;;;;;;;;4955591;28;20034;-83
2021/01/31 12:05:47;;;;;;;7.18;1.50;;;;;;;;;;4942342;28;20274;-82
2021/01/31 12:08:13;;;;;;;7.30;1.40;;;;;;;;;;4961215;28;20045;-82
2021/01/31 12:10:39;;;;;;;7.53;1.42;;;;;;;;;;4944359;28;20038;-82
2021/01/31 12:13:06;;;;;;;6.22;1.38;;;;;;;;;;4961089;28;20062;-83
2021/01/31 12:15:32;;;;;;;8.65;1.30;;;;;;;;;;4955916;28;20026;-83
2021/01/31 12:17:58;;;;;;;12.77;5.63;;;;;;;;;;4964059;28;20129;-84
2021/01/31 12:20:24;;;;;;;10.15;3.88;;;;;;;;;;4978215;28;20054;-83
2021/01/31 12:22:51;;;;;;;7.03;1.85;;;;;;;;;;4951474;28;20058;-84
2021/01/31 12:25:18;;;;;;;9.30;1.95;;;;;;;;;;4963181;28;20502;-83
2021/01/31 12:27:45;;;;;;;8.70;2.53;;;;;;;;;;4961242;28;20632;-84
2021/01/31 12:30:12;;;;;;;11.02;3.35;;;;;;;;;;4964614;28;20433;-84
2021/01/31 12:32:38;;;;;;;12.13;3.80;;;;;;;;;;4943789;28;20832;-82
2021/01/31 12:35:04;;;;;;;9.07;1.98;;;;;;;;;;4969250;28;20030;-84
2021/01/31 12:37:30;;;;;;;7.57;2.15;;;;;;;;;;4957961;28;20042;-83
2021/01/31 12:39:57;;;;;;;15.27;8.48;;;;;;;;;;4976053;28;20048;-82
2021/01/31 12:42:23;;;;;;;10.20;4.70;;;;;;;;;;4942111;28;20050;-83
2021/01/31 12:44:50;;;;;;;12.48;4.38;;;;;;;;;;4946384;28;20054;-83
2021/01/31 12:47:16;;;;;;;17.40;9.18;;;;;;;;;;4947263;28;20158;-82
2021/01/31 12:49:42;;;;;;;50.88;41.63;;;;;;;;;;4943845;28;20105;-82
2021/01/31 12:52:08;;;;;;;16.98;7.97;;;;;;;;;;4963896;28;20108;-82
2021/01/31 12:54:35;;;;;;;10.13;2.92;;;;;;;;;;4940147;28;20038;-83
2021/01/31 12:57:01;;;;;;;10.73;4.05;;;;;;;;;;4946208;28;20552;-84
2021/01/31 12:59:27;;;;;;;11.15;3.17;;;;;;;;;;4942454;28;20554;-84
2021/01/31 13:01:53;;;;;;;10.27;2.58;;;;;;;;;;4947959;28;20030;-83
2021/01/31 13:04:19;;;;;;;11.70;2.15;;;;;;;;;;4959129;28;20042;-83
2021/01/31 13:06:45;;;;;;;11.00;2.88;;;;;;;;;;4962395;28;20129;-84
2021/01/31 13:09:12;;;;;;;9.90;2.20;;;;;;;;;;4963410;28;20089;-84
2021/01/31 13:11:39;;;;;;;12.35;3.22;;;;;;;;;;4966282;28;20046;-84
2021/01/31 13:14:05;;;;;;;11.20;2.78;;;;;;;;;;4977280;28;20026;-83
2021/01/31 13:16:31;;;;;;;10.88;2.90;;;;;;;;;;4976223;28;20043;-84
2021/01/31 13:18:57;;;;;;;9.48;2.90;;;;;;;;;;4981294;28;20137;-84
2021/01/31 13:21:24;;;;;;;11.38;3.10;;;;;;;;;;4960845;28;20037;-84
2021/01/31 13:23:50;;;;;;;10.55;2.22;;;;;;;;;;4944805;28;20459;-83
2021/01/31 13:26:16;;;;;;;12.90;2.40;;;;;;;;;;4961972;28;20027;-84
2021/01/31 13:28:42;;;;;;;11.48;2.45;;;;;;;;;;4966171;28;20038;-83
2021/01/31 13:31:09;;;;;;;9.70;2.28;;;;;;;;;;4961077;28;20045;-83
2021/01/31 13:33:35;;;;;;;10.25;2.00;;;;;;;;;;4965559;28;20713;-85
2021/01/31 13:36:01;;;;;;;8.98;2.53;;;;;;;;;;4980714;28;20030;-85
2021/01/31 13:38:28;;;;;;;12.13;2.47;;;;;;;;;;4959171;28;20054;-83
2021/01/31 13:40:54;;;;;;;9.77;2.40;;;;;;;;;;4948595;28;20035;-84
2021/01/31 13:43:20;;;;;;;8.90;1.98;;;;;;;;;;4960958;28;20031;-84
2021/01/31 13:45:46;;;;;;;9.40;2.17;;;;;;;;;;4944431;28;20050;-84
2021/01/31 13:48:13;;;;;;;9.75;2.72;;;;;;;;;;4962339;28;20038;-84
2021/01/31 13:50:39;;;;;;;9.85;2.53;;;;;;;;;;4945205;28;20197;-82
2021/01/31 13:53:05;;;;;;;9.10;2.55;;;;;;;;;;4962571;28;20024;-82
2021/01/31 13:55:31;;;;;;;10.30;2.55;;;;;;;;;;4941079;28;20031;-83
2021/01/31 13:57:57;;;;;;;9.13;2.38;;;;;;;;;;4944775;28;20042;-84
2021/01/31 14:00:24;;;;;;;11.45;4.32;;;;;;;;;;4940354;28;20046;-83
2021/01/31 14:02:50;;;;;;;12.02;4.80;;;;;;;;;;4975590;28;20045;-83
2021/01/31 14:05:17;;;;;;;9.32;2.45;;;;;;;;;;4958626;28;20866;-82
2021/01/31 14:07:44;;;;;;;8.43;2.15;;;;;;;;;;4962362;28;20089;-82
2021/01/31 14:10:12;;;;;;;8.45;2.13;;;;;;;;;;4961535;28;20125;-82
2021/01/31 14:12:38;;;;;;;8.93;2.40;;;;;;;;;;4941973;28;20070;-84
2021/01/31 14:15:05;;;;;;;6.80;1.60;;;;;;;;;;4952011;28;20553;-84
2021/01/31 14:17:32;;;;;;;6.30;1.52;;;;;;;;;;4956431;28;20025;-83
2021/01/31 14:19:58;;;;;;;7.90;2.15;;;;;;;;;;4945385;28;20077;-82
2021/01/31 14:22:24;;;;;;;6.57;1.60;;;;;;;;;;4940034;28;20038;-83
2021/01/31 14:24:51;;;;;;;7.05;1.63;;;;;;;;;;4956771;28;20046;-83
2021/01/31 14:27:17;;;;;;;8.95;2.42;;;;;;;;;;4940132;28;21008;-82
2021/01/31 14:29:44;;;;;;;8.13;1.65;;;;;;;;;;4942997;28;20042;-82
2021/01/31 14:32:11;;;;;;;9.68;2.38;;;;;;;;;;4978221;28;20061;-81
2021/01/31 14:34:37;;;;;;;9.90;2.75;;;;;;;;;;4937576;28;20048;-82
2021/01/31 14:37:04;;;;;;;9.73;2.38;;;;;;;;;;4942531;28;20397;-82
2021/01/31 14:39:30;;;;;;;8.18;2.15;;;;;;;;;;4956537;28;20875;-82
2021/01/31 14:41:57;;;;;;;9.50;2.40;;;;;;;;;;4960641;28;20521;-84
2021/01/31 14:44:24;;;;;;;6.45;1.58;;;;;;;;;;4942030;28;20130;-83
2021/01/31 14:46:50;;;;;;;7.10;1.88;;;;;;;;;;4961257;28;20104;-84
2021/01/31 14:49:17;;;;;;;7.68;2.00;;;;;;;;;;4974418;28;20038;-84
2021/01/31 14:51:45;;;;;;;8.10;2.13;;;;;;;;;;4947221;28;20042;-84
2021/01/31 14:54:12;;;;;;;8.98;1.70;;;;;;;;;;4960091;28;20049;-83
2021/01/31 14:56:43;;;;;;;6.78;1.77;;;;;;;;;;4940567;28;20066;-84
2021/01/31 14:59:10;;;;;;;10.88;2.38;;;;;;;;;;4961889;28;20068;-84